Terminal Aerodrome Forecast
Issued by NWS

Home | Current Version | Previous Version | Text Only | Print | Product List | Glossary On
Versions: 1 2 3 4 5 6 7 8 9 10 11 12 13
606
FTUS42 KMLB 260530
TAFTIX
TAF
KTIX 260530Z 2606/2706 17006KT P6SM FEW040 SCT100
     FM261300 19007KT P6SM SCT025
     FM261700 11010KT P6SM VCSH BKN035
     FM262000 12011KT P6SM VCTS BKN035CB
      TEMPO 2621/2624 3SM TSRA BKN030CB
     FM270000 VRB05KT P6SM VCSH SCT040 BKN070
      AMD NOT SKED TIL 261100=

USA.gov is the U.S. government's official web portal to all federal, state and local government web resources and services.